Mary Alice — WCX9570 — position and weather

sailwx.info

Track history (hours):
 
Tides and Currents Weather Stations Pressure Air Temp Water Temp Dewpoint Dewpoint Depression Visibility Wind Speed Wind Dir Waves Ship Positions

Mary Alice

Owner: Donjon Marine Co., Inc., HILLSIDE, NJ. More information available from US FCC via Universal Licensing System and Coast Guard Vessel Documentation Center.

Last reported at 2014-Nov-26 05:33 UTC. Time now 2014-Nov-26 15:07 UTC.
Position N 40°28' W 074°02'.

Length 21 m; draft 5 m.

Type: Towing. MMSI: 366744020.

Date/timePositionNaut miles runAvg speedWind from/ knotsBaromVisibWave heightAir tempDewpointWater temp
2014-Nov-26 05:33N 40°28' W 074°02'11 2.1
2014-Nov-26 00:31N 40°23' W 073°50'10 5.0
2014-Nov-25 22:33N 40°29' W 074°00'6 6.0
2014-Nov-25 21:33N 40°30' W 074°08'6 5.5
2014-Nov-25 20:32N 40°30' W 074°15'0 0.1
2014-Nov-25 19:29N 40°30' W 074°15'6 6.2
2014-Nov-25 18:33N 40°30' W 074°08'15 6.2
2014-Nov-25 16:11N 40°22' W 073°52'4 5.6
2014-Nov-25 15:32N 40°25' W 073°53'6 6.5
2014-Nov-25 14:33N 40°29' W 073°60'6 6.2
2014-Nov-25 13:33N 40°30' W 074°08'5 5.0
2014-Nov-25 12:29N 40°30' W 074°15'1 0.1
2014-Nov-25 02:24N 40°30' W 074°16'0 0.0
2014-Nov-24 17:30N 40°30' W 074°15'0 0.0
2014-Nov-24 16:28N 40°30' W 074°15'0 0.0
2014-Nov-24 04:33N 40°30' W 074°16'1 0.1
2014-Nov-23 18:34N 40°29' W 074°14'7 6.9
2014-Nov-23 17:34N 40°29' W 074°05'6 6.0
2014-Nov-23 16:31N 40°28' W 073°57'8 7.1
2014-Nov-23 15:25N 40°22' W 073°51'5 6.3
2014-Nov-23 14:32N 40°26' W 073°55'6 5.7
2014-Nov-23 13:33N 40°29' W 074°02'6 5.6
2014-Nov-23 12:27N 40°30' W 074°10'4 4.4
2014-Nov-23 11:33N 40°29' W 074°15'1 0.6
2014-Nov-23 10:33N 40°30' W 074°15'5 4.5
2014-Nov-23 09:31N 40°30' W 074°09'12 3.7
2014-Nov-23 06:19N 40°26' W 073°55'6 6.7
2014-Nov-23 05:21N 40°29' W 074°02'5 6.4
2014-Nov-23 04:31N 40°30' W 074°09'5 4.1
2014-Nov-23 03:22N 40°30' W 074°16'0 0.4
2014-Nov-23 02:32N 40°30' W 074°16'0 0.0
2014-Nov-23 01:33N 40°30' W 074°16'0 0.0
2014-Nov-23 00:31N 40°30' W 074°16'0 0.0
2014-Nov-22 23:33N 40°30' W 074°16'0 0.0
2014-Nov-22 22:16N 40°30' W 074°16'0 0.1
2014-Nov-22 21:20N 40°30' W 074°16'6 6.5
2014-Nov-22 20:26N 40°30' W 074°08'15 6.8
2014-Nov-22 18:08N 40°22' W 073°51'4 6.4
2014-Nov-22 17:33N 40°24' W 073°55'7 7.1
2014-Nov-22 16:32N 40°29' W 074°02'10 7.2
2014-Nov-22 15:09N 40°29' W 074°15'1 1.1
2014-Nov-22 14:31N 40°30' W 074°15'6 5.5
2014-Nov-22 13:23N 40°30' W 074°07'7 7.2
2014-Nov-22 12:28N 40°29' W 073°59'10 8.2
2014-Nov-22 11:19N 40°22' W 073°50'5 6.0
2014-Nov-22 10:33N 40°25' W 073°55'6 5.8
2014-Nov-22 09:33N 40°29' W 073°60'6 5.7
2014-Nov-22 08:32N 40°30' W 074°07'3 0.5
2014-Nov-22 03:31N 40°30' W 074°11'14 4.4
2014-Nov-22 00:18N 40°24' W 073°54'6 6.9
2014-Nov-21 23:23N 40°29' W 073°59'5 5.3
2014-Nov-21 22:28N 40°29' W 074°05'7 5.1
2014-Nov-21 21:04N 40°29' W 074°15'1 0.8
2014-Nov-21 20:19N 40°30' W 074°15'2 1.0
2014-Nov-21 18:32N 40°30' W 074°13'7 6.9
2014-Nov-21 17:28N 40°29' W 074°03'12 5.6
2014-Nov-21 15:18N 40°22' W 073°51'6 6.6
2014-Nov-21 14:21N 40°27' W 073°56'6 7.1
2014-Nov-21 13:32N 40°29' W 074°03'6 5.4
2014-Nov-21 12:22N 40°30' W 074°11'3 3.7
2014-Nov-21 11:26N 40°30' W 074°15'21 3.3
2014-Nov-21 05:14N 40°22' W 073°50'11 6.3
2014-Nov-21 03:31N 40°29' W 074°01'7 5.7
2014-Nov-21 02:23N 40°30' W 074°09'4 5.3
2014-Nov-21 01:33N 40°29' W 074°15'0 0.2
2014-Nov-21 00:25N 40°30' W 074°15'3 3.5
2014-Nov-20 23:31N 40°30' W 074°11'4 4.0
2014-Nov-20 22:29N 40°29' W 074°06'0 0.4
2014-Nov-20 21:26N 40°29' W 074°06'14 6.4
2014-Nov-20 19:19N 40°22' W 073°52'11 6.0
2014-Nov-20 17:30N 40°28' W 074°02'7 6.6
2014-Nov-20 16:30N 40°30' W 074°11'4 3.1
2014-Nov-20 15:19N 40°30' W 074°16'4 2.0
2014-Nov-20 13:25N 40°30' W 074°11'3 3.0
2014-Nov-20 12:26N 40°30' W 074°07'5 5.0
2014-Nov-20 11:29N 40°29' W 074°01'1 0.2
2014-Nov-20 08:11N 40°29' W 073°60'4 5.8
2014-Nov-20 07:28N 40°29' W 074°05'8 4.0
2014-Nov-20 05:32N 40°30' W 074°15'0 0.1
2014-Nov-20 03:15N 40°30' W 074°16'0 0.0
2014-Nov-20 02:31N 40°30' W 074°16'0 0.0
2014-Nov-20 01:21N 40°30' W 074°16'0 0.0
2014-Nov-20 00:31N 40°30' W 074°16'0 0.0
2014-Nov-19 23:26N 40°30' W 074°16'0 0.0
2014-Nov-19 22:31N 40°30' W 074°16'0 0.0
2014-Nov-19 21:33N 40°30' W 074°16'0 0.3
2014-Nov-19 20:29N 40°30' W 074°16'0 0.0
2014-Nov-19 19:34N 40°30' W 074°16'3 2.2
2014-Nov-19 18:23N 40°30' W 074°12'7 8.4
2014-Nov-19 17:30N 40°29' W 074°03'9 3.1
2014-Nov-19 14:31N 40°22' W 073°54'8 7.4
2014-Nov-19 13:23N 40°29' W 074°01'5 6.4
2014-Nov-19 12:33N 40°30' W 074°08'6 5.3
2014-Nov-19 11:25N 40°30' W 074°15'0 0.2
2014-Nov-19 10:24N 40°30' W 074°15'8 2.5
2014-Nov-19 07:13N 40°29' W 074°05'3 2.8
2014-Nov-19 06:15N 40°30' W 074°08'2 2.6
2014-Nov-19 05:32N 40°29' W 074°06'3 2.5
2014-Nov-19 04:30N 40°28' W 074°02'10 4.6
2014-Nov-19 02:19N 40°23' W 073°52'6 7.0
2014-Nov-19 01:29N 40°27' W 073°56'6 6.7
2014-Nov-19 00:33N 40°29' W 074°04'8 5.3
2014-Nov-18 23:08N 40°29' W 074°14'1 1.6
2014-Nov-18 22:27N 40°30' W 074°16'7 4.9
2014-Nov-18 21:04N 40°36' W 074°12'2 0.9
2014-Nov-18 18:33N 40°38' W 074°12'0 0.0
2014-Nov-18 17:33N 40°38' W 074°12'5 4.3
2014-Nov-18 16:23N 40°33' W 074°13'4 0.3
2014-Nov-18 02:32N 40°30' W 074°15'5 4.9
2014-Nov-18 01:32N 40°30' W 074°09'7 6.4
2014-Nov-18 00:29N 40°29' W 074°00'6 2.6
2014-Nov-17 22:06N 40°25' W 073°55'5 6.7
2014-Nov-17 21:19N 40°29' W 073°59'5 6.6
2014-Nov-17 20:32N 40°29' W 074°06'7 5.6
2014-Nov-17 19:18N 40°29' W 074°15'2 1.0
2014-Nov-17 17:05N 40°30' W 074°12'17 6.3
2014-Nov-17 14:23N 40°22' W 073°52'12 6.2
2014-Nov-17 12:29N 40°29' W 074°05'7 6.1
2014-Nov-17 11:23N 40°29' W 074°14'1 1.4
2014-Nov-17 10:30N 40°30' W 074°15'1 0.9
2014-Nov-17 09:25N 40°29' W 074°14'18 6.1
2014-Nov-17 06:27N 40°22' W 073°52'6 6.0
2014-Nov-17 05:30N 40°27' W 073°56'5 5.1
2014-Nov-17 04:32N 40°28' W 074°02'3 2.8
2014-Nov-17 03:28N 40°29' W 074°06'6 5.1
2014-Nov-17 02:15N 40°29' W 074°14'1 1.3
2014-Nov-17 01:29N 40°30' W 074°15'0 0.2
2014-Nov-17 00:29N 40°30' W 074°15'0 0.2
2014-Nov-16 23:31N 40°29' W 074°15'7 6.1
2014-Nov-16 22:27N 40°29' W 074°07'14 7.0
2014-Nov-16 20:31N 40°22' W 073°51'3 2.7
2014-Nov-16 19:32N 40°23' W 073°55'6 6.7
2014-Nov-16 18:34N 40°29' W 073°59'6 5.6
2014-Nov-16 17:28N 40°29' W 074°07'6 5.1
2014-Nov-16 16:16N 40°29' W 074°15'1 0.7
2014-Nov-16 15:23N 40°30' W 074°15'3 3.4
2014-Nov-16 14:33N 40°30' W 074°12'9 8.1
2014-Nov-16 13:28N 40°29' W 074°00'10 5.1
2014-Nov-16 11:25N 40°22' W 073°50'2 2.1
2014-Nov-16 10:21N 40°22' W 073°53'1 0.9
2014-Nov-16 09:30N 40°22' W 073°52'7 6.5
2014-Nov-16 08:22N 40°28' W 073°58'6 6.3
2014-Nov-16 07:29N 40°29' W 074°05'7 5.8
2014-Nov-16 06:16N 40°29' W 074°14'1 1.0
2014-Nov-16 05:33N 40°30' W 074°15'  
Track history (hours):
 
Tides and Currents Weather Stations Pressure Air Temp Water Temp Dewpoint Dewpoint Depression Visibility Wind Speed Wind Dir Waves Ship Positions

Mary Alice

Owner: Donjon Marine Co., Inc., HILLSIDE, NJ. More information available from US FCC via Universal Licensing System and Coast Guard Vessel Documentation Center.

Last reported at 2014-Nov-26 05:33 UTC. Time now 2014-Nov-26 15:07 UTC.
Position N 40°28' W 074°02'.

Length 21 m; draft 5 m.

Type: Towing. MMSI: 366744020.

Date/timePositionNaut miles runAvg speedWind from/ knotsBaromVisibWave heightAir tempDewpointWater temp
2014-Nov-26 05:33N 40°28' W 074°02'11 2.1
2014-Nov-26 00:31N 40°23' W 073°50'10 5.0
2014-Nov-25 22:33N 40°29' W 074°00'6 6.0
2014-Nov-25 21:33N 40°30' W 074°08'6 5.5
2014-Nov-25 20:32N 40°30' W 074°15'0 0.1
2014-Nov-25 19:29N 40°30' W 074°15'6 6.2
2014-Nov-25 18:33N 40°30' W 074°08'15 6.2
2014-Nov-25 16:11N 40°22' W 073°52'4 5.6
2014-Nov-25 15:32N 40°25' W 073°53'6 6.5
2014-Nov-25 14:33N 40°29' W 073°60'6 6.2
2014-Nov-25 13:33N 40°30' W 074°08'5 5.0
2014-Nov-25 12:29N 40°30' W 074°15'1 0.1
2014-Nov-25 02:24N 40°30' W 074°16'0 0.0
2014-Nov-24 17:30N 40°30' W 074°15'0 0.0
2014-Nov-24 16:28N 40°30' W 074°15'0 0.0
2014-Nov-24 04:33N 40°30' W 074°16'1 0.1
2014-Nov-23 18:34N 40°29' W 074°14'7 6.9
2014-Nov-23 17:34N 40°29' W 074°05'6 6.0
2014-Nov-23 16:31N 40°28' W 073°57'8 7.1
2014-Nov-23 15:25N 40°22' W 073°51'5 6.3
2014-Nov-23 14:32N 40°26' W 073°55'6 5.7
2014-Nov-23 13:33N 40°29' W 074°02'6 5.6
2014-Nov-23 12:27N 40°30' W 074°10'4 4.4
2014-Nov-23 11:33N 40°29' W 074°15'1 0.6
2014-Nov-23 10:33N 40°30' W 074°15'5 4.5
2014-Nov-23 09:31N 40°30' W 074°09'12 3.7
2014-Nov-23 06:19N 40°26' W 073°55'6 6.7
2014-Nov-23 05:21N 40°29' W 074°02'5 6.4
2014-Nov-23 04:31N 40°30' W 074°09'5 4.1
2014-Nov-23 03:22N 40°30' W 074°16'0 0.4
2014-Nov-23 02:32N 40°30' W 074°16'0 0.0
2014-Nov-23 01:33N 40°30' W 074°16'0 0.0
2014-Nov-23 00:31N 40°30' W 074°16'0 0.0
2014-Nov-22 23:33N 40°30' W 074°16'0 0.0
2014-Nov-22 22:16N 40°30' W 074°16'0 0.1
2014-Nov-22 21:20N 40°30' W 074°16'6 6.5
2014-Nov-22 20:26N 40°30' W 074°08'15 6.8
2014-Nov-22 18:08N 40°22' W 073°51'4 6.4
2014-Nov-22 17:33N 40°24' W 073°55'7 7.1
2014-Nov-22 16:32N 40°29' W 074°02'10 7.2
2014-Nov-22 15:09N 40°29' W 074°15'1 1.1
2014-Nov-22 14:31N 40°30' W 074°15'6 5.5
2014-Nov-22 13:23N 40°30' W 074°07'7 7.2
2014-Nov-22 12:28N 40°29' W 073°59'10 8.2
2014-Nov-22 11:19N 40°22' W 073°50'5 6.0
2014-Nov-22 10:33N 40°25' W 073°55'6 5.8
2014-Nov-22 09:33N 40°29' W 073°60'6 5.7
2014-Nov-22 08:32N 40°30' W 074°07'3 0.5
2014-Nov-22 03:31N 40°30' W 074°11'14 4.4
2014-Nov-22 00:18N 40°24' W 073°54'6 6.9
2014-Nov-21 23:23N 40°29' W 073°59'5 5.3
2014-Nov-21 22:28N 40°29' W 074°05'7 5.1
2014-Nov-21 21:04N 40°29' W 074°15'1 0.8
2014-Nov-21 20:19N 40°30' W 074°15'2 1.0
2014-Nov-21 18:32N 40°30' W 074°13'7 6.9
2014-Nov-21 17:28N 40°29' W 074°03'12 5.6
2014-Nov-21 15:18N 40°22' W 073°51'6 6.6
2014-Nov-21 14:21N 40°27' W 073°56'6 7.1
2014-Nov-21 13:32N 40°29' W 074°03'6 5.4
2014-Nov-21 12:22N 40°30' W 074°11'3 3.7
2014-Nov-21 11:26N 40°30' W 074°15'21 3.3
2014-Nov-21 05:14N 40°22' W 073°50'11 6.3
2014-Nov-21 03:31N 40°29' W 074°01'7 5.7
2014-Nov-21 02:23N 40°30' W 074°09'4 5.3
2014-Nov-21 01:33N 40°29' W 074°15'0 0.2
2014-Nov-21 00:25N 40°30' W 074°15'3 3.5
2014-Nov-20 23:31N 40°30' W 074°11'4 4.0
2014-Nov-20 22:29N 40°29' W 074°06'0 0.4
2014-Nov-20 21:26N 40°29' W 074°06'14 6.4
2014-Nov-20 19:19N 40°22' W 073°52'11 6.0
2014-Nov-20 17:30N 40°28' W 074°02'7 6.6
2014-Nov-20 16:30N 40°30' W 074°11'4 3.1
2014-Nov-20 15:19N 40°30' W 074°16'4 2.0
2014-Nov-20 13:25N 40°30' W 074°11'3 3.0
2014-Nov-20 12:26N 40°30' W 074°07'5 5.0
2014-Nov-20 11:29N 40°29' W 074°01'1 0.2
2014-Nov-20 08:11N 40°29' W 073°60'4 5.8
2014-Nov-20 07:28N 40°29' W 074°05'8 4.0
2014-Nov-20 05:32N 40°30' W 074°15'0 0.1
2014-Nov-20 03:15N 40°30' W 074°16'0 0.0
2014-Nov-20 02:31N 40°30' W 074°16'0 0.0
2014-Nov-20 01:21N 40°30' W 074°16'0 0.0
2014-Nov-20 00:31N 40°30' W 074°16'0 0.0
2014-Nov-19 23:26N 40°30' W 074°16'0 0.0
2014-Nov-19 22:31N 40°30' W 074°16'0 0.0
2014-Nov-19 21:33N 40°30' W 074°16'0 0.3
2014-Nov-19 20:29N 40°30' W 074°16'0 0.0
2014-Nov-19 19:34N 40°30' W 074°16'3 2.2
2014-Nov-19 18:23N 40°30' W 074°12'7 8.4
2014-Nov-19 17:30N 40°29' W 074°03'9 3.1
2014-Nov-19 14:31N 40°22' W 073°54'8 7.4
2014-Nov-19 13:23N 40°29' W 074°01'5 6.4
2014-Nov-19 12:33N 40°30' W 074°08'6 5.3
2014-Nov-19 11:25N 40°30' W 074°15'0 0.2
2014-Nov-19 10:24N 40°30' W 074°15'8 2.5
2014-Nov-19 07:13N 40°29' W 074°05'3 2.8
2014-Nov-19 06:15N 40°30' W 074°08'2 2.6
2014-Nov-19 05:32N 40°29' W 074°06'3 2.5
2014-Nov-19 04:30N 40°28' W 074°02'10 4.6
2014-Nov-19 02:19N 40°23' W 073°52'6 7.0
2014-Nov-19 01:29N 40°27' W 073°56'6 6.7
2014-Nov-19 00:33N 40°29' W 074°04'8 5.3
2014-Nov-18 23:08N 40°29' W 074°14'1 1.6
2014-Nov-18 22:27N 40°30' W 074°16'7 4.9
2014-Nov-18 21:04N 40°36' W 074°12'2 0.9
2014-Nov-18 18:33N 40°38' W 074°12'0 0.0
2014-Nov-18 17:33N 40°38' W 074°12'5 4.3
2014-Nov-18 16:23N 40°33' W 074°13'4 0.3
2014-Nov-18 02:32N 40°30' W 074°15'5 4.9
2014-Nov-18 01:32N 40°30' W 074°09'7 6.4
2014-Nov-18 00:29N 40°29' W 074°00'6 2.6
2014-Nov-17 22:06N 40°25' W 073°55'5 6.7
2014-Nov-17 21:19N 40°29' W 073°59'5 6.6
2014-Nov-17 20:32N 40°29' W 074°06'7 5.6
2014-Nov-17 19:18N 40°29' W 074°15'2 1.0
2014-Nov-17 17:05N 40°30' W 074°12'17 6.3
2014-Nov-17 14:23N 40°22' W 073°52'12 6.2
2014-Nov-17 12:29N 40°29' W 074°05'7 6.1
2014-Nov-17 11:23N 40°29' W 074°14'1 1.4
2014-Nov-17 10:30N 40°30' W 074°15'1 0.9
2014-Nov-17 09:25N 40°29' W 074°14'18 6.1
2014-Nov-17 06:27N 40°22' W 073°52'6 6.0
2014-Nov-17 05:30N 40°27' W 073°56'5 5.1
2014-Nov-17 04:32N 40°28' W 074°02'3 2.8
2014-Nov-17 03:28N 40°29' W 074°06'6 5.1
2014-Nov-17 02:15N 40°29' W 074°14'1 1.3
2014-Nov-17 01:29N 40°30' W 074°15'0 0.2
2014-Nov-17 00:29N 40°30' W 074°15'0 0.2
2014-Nov-16 23:31N 40°29' W 074°15'7 6.1
2014-Nov-16 22:27N 40°29' W 074°07'14 7.0
2014-Nov-16 20:31N 40°22' W 073°51'3 2.7
2014-Nov-16 19:32N 40°23' W 073°55'6 6.7
2014-Nov-16 18:34N 40°29' W 073°59'6 5.6
2014-Nov-16 17:28N 40°29' W 074°07'6 5.1
2014-Nov-16 16:16N 40°29' W 074°15'1 0.7
2014-Nov-16 15:23N 40°30' W 074°15'3 3.4
2014-Nov-16 14:33N 40°30' W 074°12'9 8.1
2014-Nov-16 13:28N 40°29' W 074°00'10 5.1
2014-Nov-16 11:25N 40°22' W 073°50'2 2.1
2014-Nov-16 10:21N 40°22' W 073°53'1 0.9
2014-Nov-16 09:30N 40°22' W 073°52'7 6.5
2014-Nov-16 08:22N 40°28' W 073°58'6 6.3
2014-Nov-16 07:29N 40°29' W 074°05'7 5.8
2014-Nov-16 06:16N 40°29' W 074°14'1 1.0
2014-Nov-16 05:33N 40°30' W 074°15'  

Dump ship's entire track history